createdAt,value
2019-05-23T00:03:07.285Z,21.20
2019-05-23T00:08:21.108Z,19.67
2019-05-23T00:13:42.733Z,21.27
2019-05-23T00:18:46.364Z,21.77
2019-05-23T00:23:48.369Z,18.57
2019-05-23T00:28:50.211Z,18.48
2019-05-23T00:33:52.712Z,24.47
2019-05-23T00:38:54.899Z,23.02
2019-05-23T00:43:57.243Z,23.67
2019-05-23T00:48:59.691Z,27.02
2019-05-23T00:54:01.887Z,24.70
2019-05-23T00:59:07.627Z,23.18
2019-05-23T01:04:10.407Z,26.82
2019-05-23T01:09:15.044Z,23.35
2019-05-23T01:14:16.964Z,26.10
2019-05-23T01:19:19.691Z,23.22
2019-05-23T01:24:23.776Z,24.12
2019-05-23T01:29:37.350Z,25.90
2019-05-23T01:34:33.775Z,22.37
2019-05-23T01:39:35.515Z,25.92
2019-05-23T01:44:37.599Z,23.35
2019-05-23T01:49:39.416Z,23.83
2019-05-23T01:54:41.883Z,25.75
2019-05-23T01:59:43.978Z,23.60
2019-05-23T02:04:45.572Z,23.65
2019-05-23T02:09:47.743Z,21.02
2019-05-23T02:14:49.509Z,24.15
2019-05-23T02:19:52.527Z,20.45
2019-05-23T02:24:55.990Z,22.15
2019-05-23T02:29:58.799Z,22.62
2019-05-23T02:35:02.060Z,23.92
2019-05-23T02:40:21.295Z,23.60
2019-05-23T02:45:29.055Z,27.32
2019-05-23T02:50:35.264Z,25.50
2019-05-23T02:55:38.527Z,21.60
2019-05-23T03:00:54.608Z,25.65
2019-05-23T03:05:56.149Z,26.52
2019-05-23T03:11:14.765Z,23.90
2019-05-23T03:16:22.132Z,22.00
2019-05-23T03:21:25.265Z,22.22
2019-05-23T03:26:45.849Z,21.90
2019-05-23T03:31:52.717Z,24.90
2019-05-23T03:36:56.206Z,26.15
2019-05-23T03:41:58.586Z,21.95
2019-05-23T03:47:01.537Z,28.40
2019-05-23T03:52:04.167Z,22.13
2019-05-23T03:57:07.737Z,28.02
2019-05-23T04:02:12.930Z,22.60
2019-05-23T04:07:14.644Z,22.67
2019-05-23T04:12:19.965Z,24.75
2019-05-23T04:17:22.128Z,22.37
2019-05-23T04:22:23.868Z,21.68
2019-05-23T04:27:25.836Z,20.88
2019-05-23T04:32:28.233Z,25.12
2019-05-23T04:37:29.972Z,23.45
2019-05-23T04:42:31.966Z,24.95
2019-05-23T04:47:33.746Z,24.90
2019-05-23T04:52:35.711Z,26.93
2019-05-23T04:57:38.201Z,27.50
2019-05-23T05:02:40.502Z,29.02
2019-05-23T05:07:44.346Z,28.98
2019-05-23T05:12:47.319Z,29.48
2019-05-23T05:17:49.316Z,28.52
2019-05-23T05:22:51.792Z,32.78
2019-05-23T05:27:54.306Z,31.70
2019-05-23T05:32:56.165Z,32.40
2019-05-23T05:37:58.055Z,29.27
2019-05-23T05:43:01.727Z,36.75
2019-05-23T05:48:04.309Z,33.33
2019-05-23T05:53:06.522Z,27.52
2019-05-23T05:58:08.212Z,31.80
2019-05-23T06:03:10.617Z,30.48
2019-05-23T06:08:19.994Z,31.57
2019-05-23T06:13:22.231Z,35.65
2019-05-23T06:18:24.377Z,34.85
2019-05-23T06:23:26.503Z,33.58
2019-05-23T06:28:30.156Z,34.95
2019-05-23T06:33:33.240Z,33.78
2019-05-23T06:38:37.379Z,34.63
2019-05-23T06:43:39.273Z,37.40
2019-05-23T06:48:45.559Z,43.48
2019-05-23T06:53:44.799Z,36.65
2019-05-23T06:58:46.752Z,40.08
2019-05-23T07:03:48.450Z,35.17
2019-05-23T07:08:50.213Z,30.10
2019-05-23T07:13:51.928Z,36.40
2019-05-23T07:18:53.536Z,28.07
2019-05-23T07:23:55.900Z,32.45
2019-05-23T07:28:57.799Z,28.23
2019-05-23T07:34:02.316Z,29.23
2019-05-23T07:39:04.195Z,28.42
2019-05-23T07:44:06.689Z,27.00
2019-05-23T07:49:08.552Z,30.02
2019-05-23T07:54:35.711Z,29.07
2019-05-23T07:59:37.592Z,28.60
2019-05-23T08:04:39.372Z,29.90
2019-05-23T08:09:41.055Z,32.93
2019-05-23T08:14:42.800Z,28.35
2019-05-23T08:19:49.653Z,27.05
2019-05-23T08:24:51.092Z,26.85
2019-05-23T08:29:51.873Z,27.42
2019-05-23T08:34:53.718Z,24.15
2019-05-23T08:39:57.885Z,28.55
2019-05-23T08:45:00.107Z,22.87
2019-05-23T08:50:02.686Z,20.82
2019-05-23T08:55:07.003Z,23.32
2019-05-23T09:00:10.388Z,20.92
2019-05-23T09:05:12.470Z,17.57
2019-05-23T09:10:15.415Z,17.77
2019-05-23T09:15:17.271Z,15.68
2019-05-23T09:20:19.582Z,17.80
2019-05-23T09:25:21.381Z,28.27
2019-05-23T09:30:25.702Z,13.68
2019-05-23T09:35:28.194Z,17.82
2019-05-23T09:40:30.381Z,20.77
2019-05-23T09:45:32.427Z,17.85
2019-05-23T09:50:34.496Z,23.83
2019-05-23T09:55:36.257Z,24.90
2019-05-23T10:00:38.583Z,22.00
2019-05-23T10:05:43.875Z,24.47
2019-05-23T10:10:45.362Z,19.62
2019-05-23T10:15:53.009Z,29.02
2019-05-23T10:20:54.745Z,26.73
2019-05-23T10:25:56.561Z,27.67
2019-05-23T10:30:58.268Z,24.98
2019-05-23T10:36:01.270Z,29.07
2019-05-23T10:41:03.880Z,20.57
2019-05-23T10:46:05.628Z,23.85
2019-05-23T10:51:07.469Z,24.32
2019-05-23T10:56:09.318Z,26.60
2019-05-23T11:01:12.238Z,22.90
2019-05-23T11:06:16.530Z,19.92
2019-05-23T11:11:17.721Z,20.02
2019-05-23T11:16:19.454Z,16.60
2019-05-23T11:21:21.283Z,15.32
2019-05-23T11:26:23.185Z,16.12
2019-05-23T11:31:25.658Z,11.65
2019-05-23T11:36:35.408Z,14.65
2019-05-23T11:41:31.375Z,14.28
2019-05-23T11:46:35.063Z,14.60
2019-05-23T11:51:37.638Z,12.88
2019-05-23T11:56:39.639Z,11.60
2019-05-23T12:01:59.716Z,12.85
2019-05-23T12:07:19.619Z,12.00
2019-05-23T12:12:22.481Z,14.83
2019-05-23T12:17:25.822Z,15.08
2019-05-23T12:22:27.655Z,11.65
2019-05-23T12:27:29.421Z,9.83
2019-05-23T12:32:33.431Z,10.50
2019-05-23T12:37:35.056Z,11.12
2019-05-23T12:42:36.781Z,11.20
2019-05-23T12:47:50.652Z,10.48
2019-05-23T12:52:52.320Z,10.78
2019-05-23T12:57:54.625Z,10.18
2019-05-23T13:02:56.671Z,11.00
2019-05-23T13:07:58.483Z,10.98
2019-05-23T13:13:00.484Z,11.60
2019-05-23T13:18:02.400Z,13.08
2019-05-23T13:23:04.136Z,11.68
2019-05-23T13:28:06.013Z,11.80
2019-05-23T13:33:08.760Z,11.40
2019-05-23T13:38:10.481Z,11.40
2019-05-23T13:43:12.180Z,12.50
2019-05-23T13:48:15.076Z,12.88
2019-05-23T13:53:16.917Z,10.95
2019-05-23T13:58:19.102Z,11.48
2019-05-23T14:03:23.212Z,10.13
2019-05-23T14:08:24.919Z,11.18
2019-05-23T14:13:28.612Z,10.68
2019-05-23T14:18:32.975Z,11.03
2019-05-23T14:23:35.304Z,11.68
2019-05-23T14:28:38.247Z,10.45
2019-05-23T14:34:11.761Z,12.53
2019-05-23T14:39:38.979Z,10.85
2019-05-23T14:44:40.687Z,10.45
2019-05-23T14:49:48.335Z,11.40
2019-05-23T14:54:59.969Z,11.63
2019-05-23T15:00:05.247Z,9.78
2019-05-23T15:05:08.224Z,8.90
2019-05-23T15:10:10.080Z,11.83
2019-05-23T15:15:11.787Z,10.03
2019-05-23T15:20:15.749Z,9.45
2019-05-23T15:25:17.564Z,11.48
2019-05-23T15:30:19.606Z,10.68
2019-05-23T15:35:21.383Z,11.48
2019-05-23T15:40:23.320Z,10.55
2019-05-23T15:45:25.085Z,10.53
2019-05-23T15:50:31.296Z,8.50
2019-05-23T15:55:41.265Z,14.43
2019-05-23T16:00:55.753Z,12.88
2019-05-23T16:05:57.659Z,11.35
2019-05-23T16:10:59.331Z,12.53
2019-05-23T16:16:01.248Z,10.15
2019-05-23T16:21:03.059Z,13.13
2019-05-23T16:26:05.155Z,8.80
2019-05-23T16:31:06.875Z,10.08
2019-05-23T16:36:08.625Z,10.75
2019-05-23T16:41:11.604Z,13.20
2019-05-23T16:46:14.263Z,10.78
2019-05-23T16:51:16.004Z,12.18
2019-05-23T16:56:22.367Z,11.57
2019-05-23T17:01:54.882Z,13.18
2019-05-23T17:07:10.279Z,11.60
2019-05-23T17:12:30.558Z,10.18
2019-05-23T17:18:01.150Z,10.38
2019-05-23T17:23:07.820Z,12.60
2019-05-23T17:28:23.328Z,9.95
2019-05-23T17:33:25.549Z,12.55
2019-05-23T17:38:27.235Z,12.05
2019-05-23T17:43:28.928Z,12.80
2019-05-23T17:48:30.875Z,10.68
2019-05-23T17:53:32.494Z,11.48
2019-05-23T17:58:34.377Z,12.23
2019-05-23T18:03:36.150Z,12.95
2019-05-23T18:08:39.363Z,11.33
2019-05-23T18:13:40.933Z,14.33
2019-05-23T18:18:42.698Z,13.30
2019-05-23T18:23:44.524Z,13.58
2019-05-23T18:28:46.584Z,14.10
2019-05-23T18:33:48.658Z,16.93
2019-05-23T18:38:50.345Z,14.68
2019-05-23T18:43:52.116Z,12.85
2019-05-23T18:48:54.015Z,13.98
2019-05-23T18:53:55.673Z,11.33
2019-05-23T18:58:57.750Z,13.40
2019-05-23T19:03:59.470Z,13.35
2019-05-23T19:09:01.358Z,11.18
2019-05-23T19:14:03.368Z,15.58
2019-05-23T19:19:05.408Z,10.15
2019-05-23T19:24:08.325Z,11.38
2019-05-23T19:29:10.457Z,12.82
2019-05-23T19:34:12.247Z,14.10
2019-05-23T19:39:14.803Z,13.35
2019-05-23T19:44:16.521Z,14.80
2019-05-23T19:49:18.707Z,15.98
2019-05-23T19:54:20.807Z,13.93
2019-05-23T19:59:22.493Z,14.73
2019-05-23T20:04:30.963Z,17.42
2019-05-23T20:09:30.114Z,17.05
2019-05-23T20:14:32.245Z,17.00
2019-05-23T20:19:33.921Z,16.23
2019-05-23T20:24:35.623Z,17.23
2019-05-23T20:29:37.364Z,17.85
2019-05-23T20:34:39.045Z,18.70
2019-05-23T20:39:42.457Z,32.38
2019-05-23T20:44:44.278Z,20.50
2019-05-23T20:49:45.932Z,19.35
2019-05-23T20:54:47.710Z,22.77
2019-05-23T20:59:49.386Z,19.07
2019-05-23T21:04:51.033Z,19.32
2019-05-23T21:09:52.703Z,19.02
2019-05-23T21:14:54.317Z,16.80
2019-05-23T21:19:55.969Z,19.85
2019-05-23T21:24:57.663Z,19.87
2019-05-23T21:29:59.287Z,19.37
2019-05-23T21:35:01.052Z,18.27
2019-05-23T21:40:03.240Z,15.93
2019-05-23T21:45:05.087Z,18.75
2019-05-23T21:50:06.854Z,17.57
2019-05-23T21:55:10.915Z,18.65
2019-05-23T22:00:16.399Z,16.55
2019-05-23T22:05:18.916Z,17.82
2019-05-23T22:10:20.801Z,18.07
2019-05-23T22:15:34.822Z,16.97
2019-05-23T22:20:36.949Z,16.60
2019-05-23T22:25:38.647Z,18.27
2019-05-23T22:30:40.410Z,18.67
2019-05-23T22:35:41.996Z,17.52
2019-05-23T22:40:43.721Z,20.55
2019-05-23T22:45:47.063Z,19.62
2019-05-23T22:50:48.818Z,17.40
2019-05-23T22:55:50.444Z,19.55
2019-05-23T23:00:52.471Z,20.55
2019-05-23T23:05:54.179Z,18.73
2019-05-23T23:10:56.338Z,19.48
2019-05-23T23:15:58.069Z,17.45
2019-05-23T23:20:59.765Z,20.60
2019-05-23T23:26:01.487Z,21.20
2019-05-23T23:31:03.762Z,21.33
2019-05-23T23:36:05.716Z,20.43
2019-05-23T23:41:07.395Z,19.50
2019-05-23T23:46:27.311Z,18.73
2019-05-23T23:51:47.436Z,18.70
2019-05-23T23:57:07.485Z,19.25
